Terminal Aerodrome Forecast
Issued by NWS

Home | Current Version | Previous Version | Text Only | Print | Product List | Glossary On
Versions: 1 2 3 4 5 6 7 8 9 10 11 12 13 14 15
000
FTUS43 KGRR 241258 AAA
TAFJXN
TAF AMD
KJXN 241258Z 2413/2512 10005KT P6SM OVC100
     FM241400 16009KT 5SM -TSRA BR OVC050CB
      TEMPO 2414/2416 31015G25KT 1SM +TSRA BR OVC015CB
     FM241600 20014G23KT P6SM BKN100
     FM242300 22012G22KT P6SM VCTS BKN040CB
     FM250200 21013KT 5SM BR BKN250
     FM250400 22007KT 2SM BR BKN050=

USA.gov is the U.S. government's official web portal to all federal, state and local government web resources and services.